FMMSFMNM

Guest
Details From FMMS - Sainte Marie
To FMNM - Philibert Tsiranana
Flight Number -
Tags Generated
Created
Modified
Stats Distance 218 nm / 405 km
Max Altitude 0 ft / 0 m
Waypoints 3
Social Downloads 1
Likes 0
Share VATSIM

Download

Looking for another format? Having issues loading an existing format? Contact us
Advertisement - Login to hide

Notes

Generated

Route

FMMS MG FMNM

ID Type Via Altitude Latitude Longitude Leg Dist Tot Dist Heading (true) Name
O FMMS APT - 0 ft / 0 m -17.09898˚ 49.81671˚ - 0 nm - -
MG VOR - 0 ft / 0 m -15.65750˚ 46.34067˚ 218 nm 218 nm 293° / 294° PHILIBERT TSIRANANA VOR-DME
O FMNM APT - 0 ft / 0 m -15.66046˚ 46.34422˚ 0 nm 218 nm 131° / 131° -

Altitude Profile

Advertisement - Login to hide

Weather


0- 5 10 15 20 25 30 35+ Temperature / ° C

Clouds and Precipitation
Forecast for 2018-05-27 06:00 UTC. Updated 3 hours ago

Ground ~20,000 ft ~40,000 ft Winds

FMMS

Details ICAO FMMS (SMS)
Name SAINTE MARIE
Region Comoros, Mayotte, Réunion and Madagascar
Timezone Indian/Antananarivo (UTC+3.0)
Stats Elevation 7 ft / 2 m (AMSL)
Location -17.094260° 49.816153°
Runways 1
Magnetic Variation 13.696° W

METAR

Not found

TAF

TAF FMMS 270500Z 2706/2806 20010KT 8000 FEW007 SCT017 BKN033 TEMPO 2706/2803 3500 SHRA

Decode

Departure Runways

ID Width Length Bearing (true) Bearing (mag) Surface Threshold Offset Overrun Length
01 98 ft / 30 m 3,468 ft / 1,057 m 353.60° 7.30° Asphalt 0 ft / 0 m 0 ft / 0 m
19 98 ft / 30 m 3,468 ft / 1,057 m 173.60° 187.30° Asphalt 290 ft / 88 m 100 ft / 30 m

FMNM

Details ICAO FMNM (MJN)
Name PHILIBERT TSIRANANA
Region Comoros, Mayotte, Réunion and Madagascar
Timezone Indian/Antananarivo (UTC+3.0)
Stats Elevation 87 ft / 27 m (AMSL)
Location -15.667144° 46.351829°
Runways 1
Magnetic Variation 11.247° W

METAR

FMNM 270800Z 14008KT 9999 FEW023 31/16 Q1015 NOSIG

Decode

TAF

TAF FMNM 270500Z 2706/2806 14005KT 9999 FEW020= TAF FMMT 270500Z 2706/2806 22006KT 9000 FEW007 SCT017 BKN033 TEMPO 2707/2803 4000 SHRA

Decode

Destination Runways

ID Width Length Bearing (true) Bearing (mag) Surface Threshold Offset Overrun Length
14 148 ft / 45 m 7,235 ft / 2,205 m 132.37° 143.62° Asphalt 0 ft / 0 m 98 ft / 30 m
32 148 ft / 45 m 7,235 ft / 2,205 m 312.37° 323.62° Asphalt 0 ft / 0 m 98 ft / 30 m